Huvudsida
METAR-TAF:

METAR-TAF

Flygplatser :

Kalmar Öland Airport

Kalmar, Sverige

latitud: 56-44N, longitud: 016-18E, höjd: 16 m

Aktuellt väderrapport

Denna rapport gjordes för 40 minuter sedan, klockan 16:50 UTC
Vind 10 kt från sydväst
Temperatur 5°C
Fuktighet 100%
Tryck 991 hPa
Sikt 10 km eller mer
Få moln på en höjd av 900 ft
Spridda moln på en höjd av 1100 ft
Brutna moln på en höjd av 1400 ft
lätt regn

METAR: ESMQ 161650Z 22010KT 9999 -RA FEW009 SCT011 BKN014 05/05 Q0991

Tid: 18:30 (17:30 UTC)

Väderprognos

Denna rapport gjordes för 3 timmar och 0 minuter sedan, klockan 14:30 UTC
Prognos gäller från 16 kl. 15 UTC till 16 kl. 23 UTC
Vind 8 kt från syd/sydväst
Sikt 10 km eller mer
Spridda moln på en höjd av 400 ft
Brutna moln på en höjd av 1500 ft
Temporärt
från 16 kl. 15 UTC till 16 kl. 23 UTC
Sikt: 3000 m
Brutna moln på en höjd av 400 ft
lätt regn, duggregn, fuktdis

TAF: ESMQ 161430Z 1615/1623 21008KT 9999 SCT004 BKN015 TEMPO 1615/1623 3000 -RADZ BR BKN004

Aktuella väderrapporter och prognoser från 4000 flygplatser (METAR- och TAF-rapporter).

De tillgängliga stationerna syns som gula och röda prickar på kartan.

För musen över prickarna för att se namnen på stationerna.

Klicka sedan för att få väderrapporter och prognoser.

För att ändra kartan: Klicka på de gröna knapparna med ett svart kors på för att zooma in; den gröna knappen med ett streck på för att zooma ut; eller på de gröna pilarna för angränsande kartor.


METAR-TAF: